Last 24 Hours

Coyote Canyon

10 Minute Data | America/Los_Angeles
as of 9/6/26 11:34 AM PDT
Date & Time Temp (°F) Dew Pt (°F) RH (%) Wind Spd (mph) Wind Dir (°) Wind Gust (mph) Wind Gst Dir (°) Daily Max Temp (°F) Daily Min Temp (°F)
9/6/26 - 1130 69.1 61.1 75 15.8 NW | 317 20.5 NW | 307 70.6 63.6
9/6/26 - 1120 69.1 64.2 84 14.6 NW | 311 22.1 NW | 314 70.6 63.6
9/6/26 - 1110 68.8 64.9 87 12.7 NW | 312 17.2 WNW | 303 70.6 63.6
9/6/26 - 1100 69.1 64.6 85 13.2 WNW | 302 18.9 WNW | 301 70.6 63.6
9/6/26 - 1050 69.2 64.4 85 11.9 WNW | 298 16.1 WNW | 302 70.6 63.6
9/6/26 - 1040 69.0 64.0 84 11.2 WNW | 294 16.1 WNW | 300 70.6 63.6
9/6/26 - 1030 68.6 63.8 84 9.1 WNW | 293 12.9 WNW | 292 70.6 63.6
9/6/26 - 1020 68.0 63.5 85 9.3 WNW | 296 11.6 WNW | 296 70.6 63.6
9/6/26 - 1010 67.6 63.8 88 8.5 NW | 307 10.9 WNW | 299 70.6 63.6
9/6/26 - 1000 67.6 63.3 86 8.7 WNW | 302 11.5 WNW | 294 70.6 63.6
9/6/26 - 0950 67.7 62.9 85 9.6 WNW | 295 12.0 WNW | 290 70.6 63.6
9/6/26 - 0940 67.4 63.4 87 9.7 NW | 306 12.0 NW | 326 70.6 63.6
9/6/26 - 0930 67.3 63.2 86 11.4 NW | 304 15.4 WNW | 302 70.6 63.6
9/6/26 - 0920 67.6 63.3 86 9.5 WNW | 302 11.8 WNW | 302 70.6 63.6
9/6/26 - 0910 67.8 62.2 82 8.7 NW | 304 11.6 WNW | 296 70.6 63.6
9/6/26 - 0900 68.1 61.3 79 10.2 NW | 312 14.9 NW | 316 70.6 63.6
9/6/26 - 0850 68.2 61.1 78 10.9 NW | 316 15.3 NW | 315 70.6 63.6
9/6/26 - 0840 68.2 61.2 78 8.6 NW | 313 11.5 NW | 314 70.6 63.6
9/6/26 - 0830 68.3 61.0 78 7.4 NW | 310 11.2 NW | 311 70.6 63.6
9/6/26 - 0820 68.3 60.7 77 8.7 NW | 315 12.3 NW | 316 70.6 63.6
9/6/26 - 0810 68.4 60.5 76 9.7 NW | 313 12.6 NW | 325 70.6 63.6
9/6/26 - 0800 68.0 60.6 77 10.7 NW | 319 14.6 NW | 317 70.6 63.6
9/6/26 - 0750 67.7 61.0 79 8.8 NW | 307 11.7 NW | 316 70.6 63.6
9/6/26 - 0740 67.6 61.1 80 9.2 NW | 308 12.2 NW | 305 70.6 63.6
9/6/26 - 0730 67.2 61.1 80 9.8 NW | 310 12.4 NW | 315 70.6 63.6
9/6/26 - 0720 66.4 61.2 83 10.4 NW | 315 11.8 NW | 318 70.6 63.6
9/6/26 - 0710 65.6 61.2 86 9.7 NW | 324 12.1 NW | 316 70.6 63.6
9/6/26 - 0700 65.4 61.1 86 9.2 NW | 314 10.8 NNW | 329 70.6 63.6
9/6/26 - 0650 65.5 61.1 86 8.0 WNW | 294 9.4 WNW | 297 70.6 63.6
9/6/26 - 0640 66.3 60.6 82 8.4 WNW | 290 10.2 NW | 304 70.6 63.6
9/6/26 - 0630 66.4 60.5 81 6.4 WNW | 290 10.3 WNW | 297 70.6 63.6
9/6/26 - 0620 67.3 60.1 78 4.9 WNW | 297 7.7 NNW | 327 70.6 63.6
9/6/26 - 0610 67.7 59.8 76 9.8 NNW | 329 15.6 NNW | 332 70.6 63.6
9/6/26 - 0600 66.3 60.6 82 10.8 NW | 321 13.2 NNW | 328 70.6 63.6
9/6/26 - 0550 64.4 61.0 89 11.7 NW | 312 14.3 WNW | 286 70.6 63.6
9/6/26 - 0540 64.6 60.6 87 10.9 WNW | 295 15.0 WNW | 300 70.6 63.7
9/6/26 - 0530 65.3 60.9 86 8.4 NW | 316 11.2 NNW | 329 70.6 63.9
9/6/26 - 0520 64.2 60.4 87 9.6 WNW | 290 13.0 WNW | 288 70.6 63.9
9/6/26 - 0510 66.0 61.1 84 6.9 WNW | 298 10.7 WNW | 286 70.6 64.0
9/6/26 - 0500 66.4 61.5 84 9.4 NNW | 327 13.7 NW | 318 70.6 64.0
9/6/26 - 0450 65.8 61.2 85 14.2 NW | 325 19.0 NW | 313 70.6 64.0
9/6/26 - 0440 65.5 61.4 86 14.7 NW | 316 18.8 NW | 314 70.6 64.0
9/6/26 - 0430 64.4 60.2 86 13.0 NW | 313 17.2 NW | 313 70.6 64.0
9/6/26 - 0420 64.2 58.4 81 11.6 NW | 308 16.6 WNW | 296 70.6 64.0
9/6/26 - 0410 64.5 57.2 77 12.6 NW | 306 16.9 NW | 312 70.6 64.2
9/6/26 - 0400 64.5 57.0 77 12.9 NW | 310 15.8 NW | 323 70.6 64.2
9/6/26 - 0350 64.4 57.2 77 12.8 WNW | 302 16.3 NW | 307 70.6 64.2
9/6/26 - 0340 64.5 57.1 77 13.7 NW | 308 17.5 NW | 308 70.6 64.2
9/6/26 - 0330 65.0 56.8 75 13.5 NW | 312 17.2 NW | 307 70.6 64.8
9/6/26 - 0320 65.2 56.6 74 13.1 NW | 317 17.2 NW | 316 70.6 65.0
9/6/26 - 0310 65.9 56.4 71 13.9 NW | 318 16.9 NW | 314 70.6 65.5
9/6/26 - 0300 66.5 56.0 69 12.9 NW | 316 16.2 NW | 312 70.6 66.2
9/6/26 - 0250 67.2 55.5 66 12.3 NW | 310 16.5 NW | 309 70.6 66.7
9/6/26 - 0240 67.6 55.4 65 15.2 NW | 313 19.3 NW | 316 70.6 67.0
9/6/26 - 0230 67.8 55.3 64 14.6 NW | 311 19.2 NW | 307 70.6 67.0
9/6/26 - 0220 67.4 55.6 66 15.0 NW | 319 19.5 NW | 322 70.6 67.0
9/6/26 - 0210 67.2 55.8 67 15.7 NW | 321 19.6 NW | 321 70.6 67.0
9/6/26 - 0200 67.6 55.6 65 15.2 NW | 324 18.7 NNW | 329 70.6 67.2
9/6/26 - 0150 68.4 54.7 62 13.1 NW | 314 17.3 NW | 322 70.6 68.0
9/6/26 - 0140 69.4 54.1 58 10.2 NW | 309 13.9 NW | 307 70.6 68.8
9/6/26 - 0130 70.3 53.7 56 8.4 NW | 310 10.6 NW | 304 70.6 69.6
9/6/26 - 0120 70.2 53.6 56 9.2 NW | 319 11.6 NNW | 335 70.5 69.6
9/6/26 - 0110 69.9 53.4 56 8.9 NNW | 328 11.0 NW | 324 70.2 69.6
9/6/26 - 0100 70.0 53.0 55 10.6 NW | 318 12.8 NW | 323 83.1 63.4
9/6/26 - 0050 70.0 53.2 55 10.3 NW | 311 13.3 NW | 314 83.1 63.4
9/6/26 - 0040 70.1 53.1 55 9.8 NW | 309 12.0 NW | 306 83.1 63.4
9/6/26 - 0030 69.7 53.2 56 9.1 NW | 308 11.1 NW | 311 83.1 63.4
9/6/26 - 0020 69.4 53.3 57 8.0 NW | 312 9.6 NW | 310 83.1 63.4
9/6/26 - 0010 69.5 53.5 57 7.4 WNW | 299 9.4 WNW | 298 83.1 63.4
9/6/26 - 0000 69.5 53.6 57 8.7 NW | 308 11.9 WNW | 303 83.1 63.4
9/5/26 - 2350 69.5 53.8 57 9.9 NW | 304 13.4 WNW | 298 83.1 63.4
9/5/26 - 2340 69.5 53.8 57 10.3 NW | 304 13.3 NW | 306 83.1 63.4
9/5/26 - 2330 69.7 53.8 57 12.0 WNW | 301 16.2 WNW | 295 83.1 63.4
9/5/26 - 2320 70.0 53.8 56 14.5 WNW | 301 18.8 WNW | 298 83.1 63.4
9/5/26 - 2310 70.0 53.8 56 14.8 NW | 309 18.3 NW | 313 83.1 63.4
9/5/26 - 2300 70.0 53.8 56 13.6 NW | 315 17.9 NW | 304 83.1 63.4
9/5/26 - 2250 69.8 53.7 57 11.5 NW | 321 15.9 NW | 319 83.1 63.4
9/5/26 - 2240 69.9 53.8 57 9.5 NW | 315 11.2 NW | 311 83.1 63.4
9/5/26 - 2230 70.1 53.8 56 8.5 NW | 315 10.9 NW | 315 83.1 63.4
9/5/26 - 2220 70.3 53.9 56 8.2 NW | 308 11.8 WNW | 290 83.1 63.4
9/5/26 - 2210 70.5 53.9 56 9.6 WNW | 298 13.1 WNW | 296 83.1 63.4
9/5/26 - 2200 70.6 53.9 56 10.4 NW | 304 16.4 NW | 309 83.1 63.4
9/5/26 - 2150 70.7 54.1 56 10.4 NW | 311 15.0 NW | 312 83.1 63.4
9/5/26 - 2140 70.8 54.0 55 10.3 NW | 312 13.6 NW | 310 83.1 63.4
9/5/26 - 2130 70.8 53.8 55 9.7 NW | 305 14.0 NW | 313 83.1 63.4
9/5/26 - 2120 70.8 53.6 54 10.2 NW | 315 14.0 NW | 312 83.1 63.4
9/5/26 - 2110 70.6 53.4 54 8.3 NW | 311 12.9 NW | 305 83.1 63.4
9/5/26 - 2100 70.6 53.4 54 10.4 WNW | 291 14.6 NW | 304 83.1 63.4
9/5/26 - 2050 70.7 53.2 54 11.1 WNW | 291 15.0 WNW | 282 83.1 63.4
9/5/26 - 2040 70.8 53.0 53 11.2 WNW | 292 16.6 WNW | 294 83.1 63.4
9/5/26 - 2030 70.9 52.6 52 11.5 WNW | 290 16.2 WNW | 283 83.1 63.4
9/5/26 - 2020 71.2 52.4 51 11.2 WNW | 292 15.1 WNW | 287 83.1 63.4
9/5/26 - 2010 71.8 52.5 51 11.8 WNW | 286 17.2 WNW | 288 83.1 63.4
9/5/26 - 2000 72.3 52.7 50 13.8 W | 280 19.9 W | 274 83.1 63.4
9/5/26 - 1950 72.6 52.8 50 14.2 W | 281 20.2 W | 269 83.1 63.4
9/5/26 - 1940 73.1 52.8 49 13.6 WNW | 288 18.3 WNW | 292 83.1 63.4
9/5/26 - 1930 73.6 52.9 48 14.6 WNW | 290 20.5 WNW | 294 83.1 63.4
9/5/26 - 1920 74.1 52.9 47 13.8 WNW | 288 18.9 NW | 307 83.1 63.4
9/5/26 - 1910 74.7 53.0 47 14.7 WNW | 296 20.2 WNW | 291 83.1 63.4
9/5/26 - 1900 75.2 53.0 46 13.3 NW | 304 19.6 NW | 304 83.1 63.4
9/5/26 - 1850 75.4 53.1 46 15.0 WNW | 287 23.8 WNW | 292 83.1 63.4
9/5/26 - 1840 76.1 53.2 45 16.9 WNW | 294 25.4 WNW | 294 83.1 63.4
9/5/26 - 1830 76.9 53.2 44 16.3 WNW | 291 22.9 WNW | 295 83.1 63.4
9/5/26 - 1820 77.2 53.2 43 15.5 WNW | 284 21.4 W | 267 83.1 63.4
9/5/26 - 1810 77.7 52.9 42 16.4 WNW | 282 23.1 W | 279 83.1 63.4
9/5/26 - 1800 78.2 53.0 41 15.5 W | 280 22.9 W | 274 83.1 63.4
9/5/26 - 1750 78.3 52.7 41 17.9 WNW | 286 26.4 WNW | 294 83.1 63.4
9/5/26 - 1740 78.2 52.5 41 19.1 WNW | 291 27.2 WNW | 289 83.1 63.4
9/5/26 - 1730 78.2 52.5 41 18.0 WNW | 297 28.3 WNW | 293 83.1 63.4
9/5/26 - 1720 79.0 52.5 40 17.4 WNW | 295 24.0 W | 275 83.1 63.4
9/5/26 - 1710 79.0 52.2 39 13.9 WNW | 289 22.0 WNW | 289 83.1 63.4
9/5/26 - 1700 79.2 52.2 39 15.7 WNW | 293 25.9 WNW | 301 83.1 63.4
9/5/26 - 1650 79.3 52.1 39 13.9 W | 273 24.2 W | 270 83.1 63.4
9/5/26 - 1640 79.7 51.8 38 16.1 WNW | 298 23.3 WNW | 294 83.1 63.4
9/5/26 - 1630 79.8 51.0 37 16.1 WNW | 295 26.1 WNW | 286 83.1 63.4
9/5/26 - 1620 80.4 51.5 37 16.3 WNW | 283 27.5 WNW | 294 83.1 63.4
9/5/26 - 1610 81.0 51.6 36 15.0 W | 278 25.0 W | 276 83.1 63.4
9/5/26 - 1600 80.8 52.0 37 13.9 W | 276 22.9 NW | 305 83.1 63.4
9/5/26 - 1550 81.5 51.7 36 15.5 W | 278 28.3 WNW | 289 83.1 63.4
9/5/26 - 1540 80.6 51.4 36 19.0 WNW | 291 27.6 WNW | 289 83.1 63.4
9/5/26 - 1530 82.1 52.5 36 10.9 WSW | 251 21.9 W | 261 83.1 63.4
9/5/26 - 1520 80.9 52.4 37 15.2 WSW | 254 24.4 WSW | 241 82.7 63.4
9/5/26 - 1510 80.2 51.2 36 14.4 W | 274 22.7 WSW | 251 82.7 63.4
9/5/26 - 1500 80.5 51.2 36 13.1 W | 264 22.2 W | 264 82.7 63.4
9/5/26 - 1450 81.3 51.2 35 15.9 W | 276 24.9 W | 279 82.7 63.4
9/5/26 - 1440 80.5 50.5 35 12.5 WSW | 252 24.1 WSW | 246 82.7 63.4
9/5/26 - 1430 81.1 50.4 34 10.8 W | 259 19.6 W | 264 82.7 63.4
9/5/26 - 1420 80.9 51.2 36 10.4 SW | 218 21.1 SSW | 204 82.7 63.4
9/5/26 - 1410 80.4 51.3 36 10.7 SW | 224 19.9 SSW | 202 82.3 63.4
9/5/26 - 1400 80.0 51.9 38 15.0 SW | 220 24.0 SW | 231 82.3 63.4
9/5/26 - 1350 80.1 50.5 36 11.5 SW | 221 22.9 SSW | 204 82.3 63.4
9/5/26 - 1340 80.2 49.9 35 13.7 SSW | 204 25.8 SSW | 211 82.3 63.4
9/5/26 - 1330 80.4 48.4 33 12.5 SW | 225 22.7 WSW | 242 82.3 63.4
9/5/26 - 1320 81.0 48.0 32 11.6 WSW | 245 23.5 SSW | 211 82.3 63.4
9/5/26 - 1310 80.2 46.8 31 6.8 WSW | 250 16.3 WNW | 292 82.3 63.4
9/5/26 - 1300 80.0 44.2 28 13.1 WNW | 286 20.4 WNW | 287 82.3 63.4
9/5/26 - 1250 80.7 48.8 33 14.0 SW | 226 22.8 SW | 227 82.3 63.4
9/5/26 - 1240 80.6 49.6 34 14.4 WSW | 243 23.2 SSW | 206 82.3 63.4
9/5/26 - 1230 79.2 47.9 33 13.3 WSW | 248 30.7 SW | 229 80.0 63.4
9/5/26 - 1220 79.1 47.7 33 17.6 WSW | 249 27.0 WSW | 250 79.9 63.4
9/5/26 - 1210 79.3 46.5 32 15.0 WSW | 249 22.2 W | 261 79.9 63.4
9/5/26 - 1200 78.5 45.4 31 13.7 WSW | 246 23.7 WSW | 249 79.0 63.4
9/5/26 - 1150 77.8 45.8 32 16.2 SW | 228 25.1 SW | 221 79.0 63.4
9/5/26 - 1140 78.3 46.2 32 14.8 WSW | 241 21.8 WSW | 239 79.0 63.4
9/5/26 - 1130 78.1 45.2 31 13.5 SW | 234 23.9 WSW | 253 78.7 63.4
Max 82.1 64.9 89 19.1 - 30.7 - 83.1 69.6
Avg 71.9 55.3 59 12.1 - 17.6 - - -
Min 64.2 44.2 28 4.9 - 7.7 - 70.2 63.4